Terminal Aerodrome Forecast
Issued by NWS Knoxville/Tri Cities, TN

Current Version | Previous Version | Text Only | Print | Product List | Glossary On
Versions: 1 2 3 4 5 6 7 8 9 10 11 12 13 14 15 16 17 18 19 20 21 22 23
194
FTUS44 KMRX 081126
TAFTYS
TAF
KTYS 081126Z 0812/0912 23006KT P6SM BKN050 OVC150
     FM081500 24011KT P6SM VCSH OVC050
     FM081800 24015G22KT P6SM -SHRA OVC035
     FM090000 25011KT P6SM -SHSN OVC025
     FM090600 26008KT 5SM -SHSN OVC015=

USA.gov is the U.S. government's official web portal to all federal, state and local government web resources and services.